Oaktown, Indiana
Current Conditions -  °F | °C
As of 3:53 PM on Saturday 25 Oct 2014 (Local Time) from KLWV Reporting Station
Haze Haze  
Wind Chill: 79°   Ceiling: Unl
Heat Index: 79°   Visibility: 0.75mi
Dew Point: 53°   Wind: 7mph
Humidity: 40%   Direction: 310°NW
Pressure: 29.97"   Gusts: NA
Location:  38.87°N, 87.44°W
Report Text: KLWV 252053Z AUTO 31006KT 3/4SM HZ CLR 26/12 A2997 RMK AO2 SLP148 T02610117 56007
Loading
Personal Weather Stations






























Interactive Weather Map New forecast layout! Learn more

10-Day Weather Forecast

Advertisements
Track Severe Weather on mobile